sensor_id;sensor_type;location;lat;lon;timestamp;pressure;altitude;pressure_sealevel;temperature;humidity
37856;BME280;23694;43.274;26.924;2023-04-01T00:00:22;98060.75;;;9.43;77.40
37856;BME280;23694;43.274;26.924;2023-04-01T00:02:48;98057.78;;;9.37;77.62
37856;BME280;23694;43.274;26.924;2023-04-01T00:05:14;98063.00;;;9.37;77.42
37856;BME280;23694;43.274;26.924;2023-04-01T00:07:42;98056.81;;;9.38;77.76
37856;BME280;23694;43.274;26.924;2023-04-01T00:10:11;98055.75;;;9.51;76.89
37856;BME280;23694;43.274;26.924;2023-04-01T00:12:39;98053.50;;;9.47;77.09
37856;BME280;23694;43.274;26.924;2023-04-01T00:15:08;98046.47;;;9.59;76.49
37856;BME280;23694;43.274;26.924;2023-04-01T00:17:34;98043.38;;;9.53;76.57
37856;BME280;23694;43.274;26.924;2023-04-01T00:20:00;98030.22;;;9.44;75.95
37856;BME280;23694;43.274;26.924;2023-04-01T00:22:26;98031.41;;;9.40;77.26
37856;BME280;23694;43.274;26.924;2023-04-01T00:24:53;98029.75;;;9.28;77.45
37856;BME280;23694;43.274;26.924;2023-04-01T00:27:19;98025.34;;;9.17;77.95
37856;BME280;23694;43.274;26.924;2023-04-01T00:29:46;98022.22;;;9.01;78.14
37856;BME280;23694;43.274;26.924;2023-04-01T00:32:14;98018.41;;;9.05;79.19
37856;BME280;23694;43.274;26.924;2023-04-01T00:34:40;98024.59;;;9.04;79.04
37856;BME280;23694;43.274;26.924;2023-04-01T00:37:07;98019.38;;;9.04;79.22
37856;BME280;23694;43.274;26.924;2023-04-01T00:39:34;98016.41;;;9.08;78.80
37856;BME280;23694;43.274;26.924;2023-04-01T00:42:03;98022.44;;;8.98;79.35
37856;BME280;23694;43.274;26.924;2023-04-01T00:44:33;98019.97;;;8.96;79.01
37856;BME280;23694;43.274;26.924;2023-04-01T00:47:00;98003.56;;;8.94;79.64
37856;BME280;23694;43.274;26.924;2023-04-01T00:49:29;98001.19;;;9.02;79.17
37856;BME280;23694;43.274;26.924;2023-04-01T00:52:00;98004.88;;;9.00;79.08
37856;BME280;23694;43.274;26.924;2023-04-01T00:54:28;98004.41;;;9.06;79.40
37856;BME280;23694;43.274;26.924;2023-04-01T00:56:59;97996.94;;;9.01;78.98
37856;BME280;23694;43.274;26.924;2023-04-01T00:59:30;97998.47;;;8.93;79.62
37856;BME280;23694;43.274;26.924;2023-04-01T01:01:58;98004.03;;;8.77;80.15
37856;BME280;23694;43.274;26.924;2023-04-01T01:04:28;97998.47;;;8.93;79.76
37856;BME280;23694;43.274;26.924;2023-04-01T01:12:20;97995.97;;;8.80;80.11
37856;BME280;23694;43.274;26.924;2023-04-01T01:15:25;97991.56;;;8.69;81.05
37856;BME280;23694;43.274;26.924;2023-04-01T01:35:24;97973.41;;;8.68;81.45
37856;BME280;23694;43.274;26.924;2023-04-01T01:37:30;97972.56;;;8.67;81.88
37856;BME280;23694;43.274;26.924;2023-04-01T01:40:00;97969.50;;;8.73;81.65
37856;BME280;23694;43.274;26.924;2023-04-01T01:42:29;97965.81;;;8.65;82.18
37856;BME280;23694;43.274;26.924;2023-04-01T01:44:59;97970.78;;;8.68;81.48
37856;BME280;23694;43.274;26.924;2023-04-01T01:47:27;97970.44;;;8.61;81.33
37856;BME280;23694;43.274;26.924;2023-04-01T01:49:54;97967.59;;;8.64;81.69
37856;BME280;23694;43.274;26.924;2023-04-01T01:52:22;97968.66;;;8.62;81.67
37856;BME280;23694;43.274;26.924;2023-04-01T01:54:50;97959.16;;;8.61;82.55
37856;BME280;23694;43.274;26.924;2023-04-01T01:57:21;97958.06;;;8.52;82.25
37856;BME280;23694;43.274;26.924;2023-04-01T01:59:49;97947.16;;;8.47;82.34
37856;BME280;23694;43.274;26.924;2023-04-01T02:02:17;97951.53;;;8.46;82.37
37856;BME280;23694;43.274;26.924;2023-04-01T02:04:44;97953.19;;;8.47;82.78
37856;BME280;23694;43.274;26.924;2023-04-01T02:07:20;97953.97;;;8.37;82.66
37856;BME280;23694;43.274;26.924;2023-04-01T02:09:48;97957.78;;;8.44;83.44
37856;BME280;23694;43.274;26.924;2023-04-01T02:12:15;97945.19;;;8.38;83.67
37856;BME280;23694;43.274;26.924;2023-04-01T02:14:54;97943.53;;;8.37;83.25
37856;BME280;23694;43.274;26.924;2023-04-01T02:17:25;97934.53;;;8.41;83.08
37856;BME280;23694;43.274;26.924;2023-04-01T02:20:05;97937.25;;;8.39;83.22
37856;BME280;23694;43.274;26.924;2023-04-01T02:22:35;97937.25;;;8.39;83.32
37856;BME280;23694;43.274;26.924;2023-04-01T02:25:07;97939.75;;;8.41;82.93
37856;BME280;23694;43.274;26.924;2023-04-01T02:27:34;97932.75;;;8.41;83.14
37856;BME280;23694;43.274;26.924;2023-04-01T02:30:00;97934.13;;;8.23;83.96
37856;BME280;23694;43.274;26.924;2023-04-01T02:32:27;97929.47;;;8.15;84.88
37856;BME280;23694;43.274;26.924;2023-04-01T02:34:55;97908.94;;;8.11;84.37
37856;BME280;23694;43.274;26.924;2023-04-01T02:37:22;97914.53;;;8.17;85.26
37856;BME280;23694;43.274;26.924;2023-04-01T02:39:48;97917.75;;;8.21;84.43
37856;BME280;23694;43.274;26.924;2023-04-01T02:42:14;97904.00;;;8.19;85.27
37856;BME280;23694;43.274;26.924;2023-04-01T02:44:40;97912.66;;;8.19;84.89
37856;BME280;23694;43.274;26.924;2023-04-01T02:47:07;97901.00;;;8.12;84.55
37856;BME280;23694;43.274;26.924;2023-04-01T02:49:33;97904.06;;;8.06;85.59
37856;BME280;23694;43.274;26.924;2023-04-01T02:51:59;97888.09;;;8.22;84.88
37856;BME280;23694;43.274;26.924;2023-04-01T02:54:25;97891.91;;;8.29;84.60
37856;BME280;23694;43.274;26.924;2023-04-01T02:56:51;97886.22;;;8.24;84.36
37856;BME280;23694;43.274;26.924;2023-04-01T02:59:17;97879.28;;;8.01;86.08
37856;BME280;23694;43.274;26.924;2023-04-01T03:01:43;97877.78;;;8.09;85.35
37856;BME280;23694;43.274;26.924;2023-04-01T03:04:09;97881.69;;;8.15;85.18
37856;BME280;23694;43.274;26.924;2023-04-01T03:06:35;97884.19;;;8.16;85.85
37856;BME280;23694;43.274;26.924;2023-04-01T03:09:01;97873.16;;;8.24;84.85
37856;BME280;23694;43.274;26.924;2023-04-01T03:11:28;97878.75;;;8.31;84.79
37856;BME280;23694;43.274;26.924;2023-04-01T03:13:54;97868.78;;;8.24;84.33
37856;BME280;23694;43.274;26.924;2023-04-01T03:16:20;97869.63;;;8.25;84.92
37856;BME280;23694;43.274;26.924;2023-04-01T03:18:46;97870.03;;;7.97;86.14
37856;BME280;23694;43.274;26.924;2023-04-01T03:21:20;97856.44;;;8.15;85.82
37856;BME280;23694;43.274;26.924;2023-04-01T03:23:47;97859.50;;;8.09;86.30
37856;BME280;23694;43.274;26.924;2023-04-01T03:26:13;97857.28;;;8.16;85.84
37856;BME280;23694;43.274;26.924;2023-04-01T03:28:39;97856.56;;;8.25;85.48
37856;BME280;23694;43.274;26.924;2023-04-01T03:31:06;97848.97;;;8.11;85.75
37856;BME280;23694;43.274;26.924;2023-04-01T03:33:32;97852.16;;;8.03;86.22
37856;BME280;23694;43.274;26.924;2023-04-01T03:35:58;97857.28;;;8.16;86.08
37856;BME280;23694;43.274;26.924;2023-04-01T03:38:25;97842.94;;;8.21;85.81
37856;BME280;23694;43.274;26.924;2023-04-01T03:40:51;97858.91;;;8.06;87.37
37856;BME280;23694;43.274;26.924;2023-04-01T03:43:17;97850.63;;;8.12;87.10
37856;BME280;23694;43.274;26.924;2023-04-01T03:45:48;97848.25;;;8.09;86.31
37856;BME280;23694;43.274;26.924;2023-04-01T03:48:14;97850.53;;;8.24;86.50
37856;BME280;23694;43.274;26.924;2023-04-01T03:50:41;97851.72;;;8.32;86.14
37856;BME280;23694;43.274;26.924;2023-04-01T03:53:07;97855.38;;;8.18;86.78
37856;BME280;23694;43.274;26.924;2023-04-01T03:55:35;97858.94;;;8.17;86.92
37856;BME280;23694;43.274;26.924;2023-04-01T03:58:01;97854.44;;;8.30;86.43
37856;BME280;23694;43.274;26.924;2023-04-01T04:00:31;97855.63;;;8.26;87.09
37856;BME280;23694;43.274;26.924;2023-04-01T04:02:57;97846.84;;;8.27;87.43
37856;BME280;23694;43.274;26.924;2023-04-01T04:05:25;97860.66;;;8.40;86.36
37856;BME280;23694;43.274;26.924;2023-04-01T04:07:51;97854.41;;;8.54;85.81
37856;BME280;23694;43.274;26.924;2023-04-01T04:10:18;97860.44;;;8.54;86.40
37856;BME280;23694;43.274;26.924;2023-04-01T04:12:45;97852.50;;;8.67;85.12
37856;BME280;23694;43.274;26.924;2023-04-01T04:15:12;97858.91;;;8.74;85.48
37856;BME280;23694;43.274;26.924;2023-04-01T04:17:38;97858.06;;;8.74;85.33
37856;BME280;23694;43.274;26.924;2023-04-01T04:20:04;97855.66;;;9.04;85.04
37856;BME280;23694;43.274;26.924;2023-04-01T04:22:30;97852.72;;;9.41;83.10
37856;BME280;23694;43.274;26.924;2023-04-01T04:24:56;97845.41;;;9.56;81.25
37856;BME280;23694;43.274;26.924;2023-04-01T04:27:22;97839.50;;;9.53;80.22
37856;BME280;23694;43.274;26.924;2023-04-01T04:29:48;97844.09;;;9.29;82.33
37856;BME280;23694;43.274;26.924;2023-04-01T04:32:15;97832.44;;;9.33;81.71
37856;BME280;23694;43.274;26.924;2023-04-01T04:34:41;97823.31;;;9.28;82.34
37856;BME280;23694;43.274;26.924;2023-04-01T04:37:07;97828.00;;;9.13;83.46
37856;BME280;23694;43.274;26.924;2023-04-01T04:39:33;97831.19;;;9.05;84.18
37856;BME280;23694;43.274;26.924;2023-04-01T04:41:59;97831.19;;;9.16;84.28
37856;BME280;23694;43.274;26.924;2023-04-01T04:44:25;97831.66;;;9.21;84.05
37856;BME280;23694;43.274;26.924;2023-04-01T04:46:51;97825.94;;;9.28;84.20
37856;BME280;23694;43.274;26.924;2023-04-01T04:49:17;97815.34;;;9.29;83.15
37856;BME280;23694;43.274;26.924;2023-04-01T04:51:43;97822.97;;;9.53;82.58
37856;BME280;23694;43.274;26.924;2023-04-01T04:54:10;97831.09;;;9.71;82.24
37856;BME280;23694;43.274;26.924;2023-04-01T04:56:36;97835.59;;;10.01;80.78
37856;BME280;23694;43.274;26.924;2023-04-01T04:59:02;97828.44;;;10.24;80.77
37856;BME280;23694;43.274;26.924;2023-04-01T05:01:28;97826.72;;;10.64;78.83
37856;BME280;23694;43.274;26.924;2023-04-01T05:03:55;97820.59;;;10.85;77.35
37856;BME280;23694;43.274;26.924;2023-04-01T05:06:21;97822.19;;;11.16;74.99
37856;BME280;23694;43.274;26.924;2023-04-01T05:08:47;97821.09;;;11.19;74.91
37856;BME280;23694;43.274;26.924;2023-04-01T05:11:18;97810.63;;;11.48;73.85
37856;BME280;23694;43.274;26.924;2023-04-01T05:13:44;97799.84;;;11.60;73.62
37856;BME280;23694;43.274;26.924;2023-04-01T05:16:13;97803.06;;;11.93;72.97
37856;BME280;23694;43.274;26.924;2023-04-01T05:18:39;97811.41;;;12.25;71.49
37856;BME280;23694;43.274;26.924;2023-04-01T05:21:07;97815.34;;;12.49;70.32
37856;BME280;23694;43.274;26.924;2023-04-01T05:23:34;97813.38;;;12.14;70.55
37856;BME280;23694;43.274;26.924;2023-04-01T05:26:08;97805.09;;;11.70;73.55
37856;BME280;23694;43.274;26.924;2023-04-01T05:28:34;97809.97;;;11.94;72.65
37856;BME280;23694;43.274;26.924;2023-04-01T05:31:02;97806.22;;;11.58;73.68
37856;BME280;23694;43.274;26.924;2023-04-01T05:33:29;97810.63;;;11.38;74.81
37856;BME280;23694;43.274;26.924;2023-04-01T05:35:55;97795.44;;;11.41;74.91
37856;BME280;23694;43.274;26.924;2023-04-01T05:38:21;97793.22;;;11.18;75.91
37856;BME280;23694;43.274;26.924;2023-04-01T05:40:48;97793.50;;;11.24;76.19
37856;BME280;23694;43.274;26.924;2023-04-01T05:43:14;97802.28;;;11.04;77.10
37856;BME280;23694;43.274;26.924;2023-04-01T05:45:40;97791.44;;;11.08;77.72
37856;BME280;23694;43.274;26.924;2023-04-01T05:48:06;97790.75;;;11.16;77.06
37856;BME280;23694;43.274;26.924;2023-04-01T05:50:32;97787.59;;;11.22;77.51
37856;BME280;23694;43.274;26.924;2023-04-01T05:52:58;97787.44;;;11.33;77.28
37856;BME280;23694;43.274;26.924;2023-04-01T05:55:24;97782.47;;;11.40;76.39
37856;BME280;23694;43.274;26.924;2023-04-01T05:57:50;97772.13;;;11.58;75.54
37856;BME280;23694;43.274;26.924;2023-04-01T06:00:17;97777.38;;;11.58;75.17
37856;BME280;23694;43.274;26.924;2023-04-01T06:02:43;97768.25;;;11.62;74.86
37856;BME280;23694;43.274;26.924;2023-04-01T06:05:14;97775.31;;;11.32;75.28
37856;BME280;23694;43.274;26.924;2023-04-01T06:07:41;97773.88;;;10.99;77.65
37856;BME280;23694;43.274;26.924;2023-04-01T06:10:20;97774.97;;;10.97;77.40
37856;BME280;23694;43.274;26.924;2023-04-01T06:16:39;97771.56;;;11.16;77.96
37856;BME280;23694;43.274;26.924;2023-04-01T06:18:45;97759.84;;;11.39;76.67
37856;BME280;23694;43.274;26.924;2023-04-01T06:24:42;97763.28;;;11.49;73.84
37856;BME280;23694;43.274;26.924;2023-04-01T06:32:36;97754.03;;;11.74;72.35
37856;BME280;23694;43.274;26.924;2023-04-01T06:45:31;97755.09;;;12.10;70.78
37856;BME280;23694;43.274;26.924;2023-04-01T06:56:20;97752.50;;;12.65;68.42
37856;BME280;23694;43.274;26.924;2023-04-01T06:58:59;97751.13;;;12.33;68.90
37856;BME280;23694;43.274;26.924;2023-04-01T07:01:34;97748.56;;;12.51;68.79
37856;BME280;23694;43.274;26.924;2023-04-01T07:04:14;97750.53;;;13.22;68.05
37856;BME280;23694;43.274;26.924;2023-04-01T07:09:49;97747.41;;;14.06;62.86
37856;BME280;23694;43.274;26.924;2023-04-01T07:14:54;97741.06;;;14.42;62.08
37856;BME280;23694;43.274;26.924;2023-04-01T07:17:28;97748.03;;;14.51;61.39
37856;BME280;23694;43.274;26.924;2023-04-01T07:22:33;97741.81;;;14.09;61.67
37856;BME280;23694;43.274;26.924;2023-04-01T07:25:07;97749.06;;;13.81;63.25
37856;BME280;23694;43.274;26.924;2023-04-01T07:27:37;97742.56;;;13.93;62.83
37856;BME280;23694;43.274;26.924;2023-04-01T07:30:14;97744.72;;;13.54;64.27
37856;BME280;23694;43.274;26.924;2023-04-01T07:35:33;97743.50;;;13.13;66.55
37856;BME280;23694;43.274;26.924;2023-04-01T07:46:20;97729.94;;;13.35;66.83
37856;BME280;23694;43.274;26.924;2023-04-01T07:49:06;97725.88;;;13.05;67.86
37856;BME280;23694;43.274;26.924;2023-04-01T07:51:45;97730.63;;;12.92;68.74
37856;BME280;23694;43.274;26.924;2023-04-01T07:54:42;97725.88;;;13.23;68.31
37856;BME280;23694;43.274;26.924;2023-04-01T07:57:22;97718.56;;;13.52;67.48
37856;BME280;23694;43.274;26.924;2023-04-01T07:59:56;97717.97;;;13.05;68.49
37856;BME280;23694;43.274;26.924;2023-04-01T08:10:32;97712.50;;;13.34;66.65
37856;BME280;23694;43.274;26.924;2023-04-01T08:13:06;97721.69;;;13.30;66.89
37856;BME280;23694;43.274;26.924;2023-04-01T08:15:59;97703.75;;;13.51;67.70
37856;BME280;23694;43.274;26.924;2023-04-01T08:21:16;97702.34;;;13.83;64.67
37856;BME280;23694;43.274;26.924;2023-04-01T08:23:48;97710.56;;;13.62;64.58
37856;BME280;23694;43.274;26.924;2023-04-01T08:29:01;97713.00;;;13.73;65.64
37856;BME280;23694;43.274;26.924;2023-04-01T08:31:40;97712.88;;;13.83;64.55
37856;BME280;23694;43.274;26.924;2023-04-01T08:34:19;97702.75;;;13.96;64.92
37856;BME280;23694;43.274;26.924;2023-04-01T08:36:51;97711.44;;;13.88;63.53
37856;BME280;23694;43.274;26.924;2023-04-01T08:39:31;97705.28;;;14.06;62.71
37856;BME280;23694;43.274;26.924;2023-04-01T08:56:27;97681.16;;;14.18;61.73
37856;BME280;23694;43.274;26.924;2023-04-01T09:23:47;97660.06;;;14.44;65.41
37856;BME280;23694;43.274;26.924;2023-04-01T09:34:49;97646.63;;;14.72;63.96
37856;BME280;23694;43.274;26.924;2023-04-01T09:43:21;97625.25;;;14.99;63.53
37856;BME280;23694;43.274;26.924;2023-04-01T09:46:09;97624.72;;;14.79;64.36
37856;BME280;23694;43.274;26.924;2023-04-01T09:51:26;97622.44;;;15.17;63.58
37856;BME280;23694;43.274;26.924;2023-04-01T10:11:21;97588.09;;;15.58;59.82
37856;BME280;23694;43.274;26.924;2023-04-01T10:13:57;97582.97;;;15.72;59.46
37856;BME280;23694;43.274;26.924;2023-04-01T10:17:04;97583.09;;;16.26;57.15
37856;BME280;23694;43.274;26.924;2023-04-01T10:29:22;97577.53;;;16.44;55.79
37856;BME280;23694;43.274;26.924;2023-04-01T10:36:59;97575.81;;;16.28;55.80
37856;BME280;23694;43.274;26.924;2023-04-01T10:42:40;97569.72;;;16.51;55.30
37856;BME280;23694;43.274;26.924;2023-04-01T10:45:31;97568.09;;;16.49;55.17
37856;BME280;23694;43.274;26.924;2023-04-01T10:53:27;97566.78;;;16.99;53.44
37856;BME280;23694;43.274;26.924;2023-04-01T11:10:51;97536.88;;;17.14;51.39
37856;BME280;23694;43.274;26.924;2023-04-01T11:32:50;97517.09;;;17.98;49.60
37856;BME280;23694;43.274;26.924;2023-04-01T11:38:34;97498.94;;;17.80;48.86
37856;BME280;23694;43.274;26.924;2023-04-01T11:41:36;97496.00;;;17.46;50.23
37856;BME280;23694;43.274;26.924;2023-04-01T11:44:12;97488.19;;;17.67;50.50
37856;BME280;23694;43.274;26.924;2023-04-01T11:55:05;97479.97;;;17.77;50.83
37856;BME280;23694;43.274;26.924;2023-04-01T12:09:17;97467.00;;;17.37;50.26
37856;BME280;23694;43.274;26.924;2023-04-01T12:15:11;97439.72;;;17.22;51.91
37856;BME280;23694;43.274;26.924;2023-04-01T12:31:58;97415.88;;;17.66;50.45
37856;BME280;23694;43.274;26.924;2023-04-01T12:34:49;97414.66;;;17.84;50.22
37856;BME280;23694;43.274;26.924;2023-04-01T12:37:37;97417.38;;;17.90;49.64
37856;BME280;23694;43.274;26.924;2023-04-01T12:43:02;97417.75;;;17.87;48.24
37856;BME280;23694;43.274;26.924;2023-04-01T12:45:40;97414.09;;;18.10;48.09
37856;BME280;23694;43.274;26.924;2023-04-01T13:09:01;97373.56;;;18.86;46.45
37856;BME280;23694;43.274;26.924;2023-04-01T13:19:39;97370.44;;;18.76;49.39
37856;BME280;23694;43.274;26.924;2023-04-01T13:22:16;97366.69;;;18.64;50.31
37856;BME280;23694;43.274;26.924;2023-04-01T13:25:06;97358.59;;;18.51;51.63
37856;BME280;23694;43.274;26.924;2023-04-01T13:27:50;97361.09;;;18.31;52.38
37856;BME280;23694;43.274;26.924;2023-04-01T13:43:58;97333.84;;;18.16;54.54
37856;BME280;23694;43.274;26.924;2023-04-01T13:52:28;97344.25;;;18.38;52.85
37856;BME280;23694;43.274;26.924;2023-04-01T14:01:08;97324.56;;;19.23;50.69
37856;BME280;23694;43.274;26.924;2023-04-01T14:17:45;97321.41;;;18.65;51.75
37856;BME280;23694;43.274;26.924;2023-04-01T14:20:34;97329.28;;;18.31;53.04
37856;BME280;23694;43.274;26.924;2023-04-01T14:26:16;97321.22;;;18.18;53.24
37856;BME280;23694;43.274;26.924;2023-04-01T14:43:16;97281.19;;;18.34;52.14
37856;BME280;23694;43.274;26.924;2023-04-01T14:51:20;97274.47;;;18.66;51.72
37856;BME280;23694;43.274;26.924;2023-04-01T14:54:04;97279.34;;;18.97;50.09
37856;BME280;23694;43.274;26.924;2023-04-01T14:57:16;97276.94;;;18.67;51.38
37856;BME280;23694;43.274;26.924;2023-04-01T14:59:40;97284.75;;;18.48;51.62
37856;BME280;23694;43.274;26.924;2023-04-01T15:26:50;97211.25;;;17.72;51.82
37856;BME280;23694;43.274;26.924;2023-04-01T15:29:54;97218.25;;;17.59;51.79
37856;BME280;23694;43.274;26.924;2023-04-01T15:43:46;97246.44;;;17.52;51.45
37856;BME280;23694;43.274;26.924;2023-04-01T15:46:41;97242.06;;;17.59;51.18
37856;BME280;23694;43.274;26.924;2023-04-01T15:52:12;97241.91;;;17.46;51.65
37856;BME280;23694;43.274;26.924;2023-04-01T16:00:23;97238.88;;;17.49;51.85
37856;BME280;23694;43.274;26.924;2023-04-01T16:09:06;97248.97;;;17.17;53.38
37856;BME280;23694;43.274;26.924;2023-04-01T16:19:55;97267.06;;;16.99;56.69
37856;BME280;23694;43.274;26.924;2023-04-01T16:22:58;97267.19;;;16.91;57.65
37856;BME280;23694;43.274;26.924;2023-04-01T16:28:25;97280.47;;;16.83;58.99
37856;BME280;23694;43.274;26.924;2023-04-01T16:31:16;97278.56;;;16.76;59.38
37856;BME280;23694;43.274;26.924;2023-04-01T16:36:52;97273.84;;;16.72;59.38
37856;BME280;23694;43.274;26.924;2023-04-01T16:39:50;97268.91;;;16.69;59.92
37856;BME280;23694;43.274;26.924;2023-04-01T16:55:20;97342.84;;;14.86;69.75
37856;BME280;23694;43.274;26.924;2023-04-01T16:57:57;97351.34;;;14.41;74.04
37856;BME280;23694;43.274;26.924;2023-04-01T17:00:37;97348.38;;;13.95;78.58
37856;BME280;23694;43.274;26.924;2023-04-01T17:03:11;97352.13;;;13.60;82.69
37856;BME280;23694;43.274;26.924;2023-04-01T17:05:52;97349.75;;;13.32;85.79
37856;BME280;23694;43.274;26.924;2023-04-01T17:11:40;97338.41;;;12.90;92.93
37856;BME280;23694;43.274;26.924;2023-04-01T17:17:21;97329.72;;;12.55;98.37
37856;BME280;23694;43.274;26.924;2023-04-01T17:25:17;97342.13;;;12.45;100.00
37856;BME280;23694;43.274;26.924;2023-04-01T17:28:09;97354.28;;;12.46;100.00
37856;BME280;23694;43.274;26.924;2023-04-01T17:30:55;97355.50;;;12.60;100.00
37856;BME280;23694;43.274;26.924;2023-04-01T17:33:54;97349.97;;;12.71;100.00
37856;BME280;23694;43.274;26.924;2023-04-01T17:36:52;97349.13;;;12.62;100.00
37856;BME280;23694;43.274;26.924;2023-04-01T17:42:21;97343.94;;;12.45;100.00
37856;BME280;23694;43.274;26.924;2023-04-01T18:01:13;97466.06;;;11.95;100.00
37856;BME280;23694;43.274;26.924;2023-04-01T18:15:19;97492.59;;;11.65;100.00
37856;BME280;23694;43.274;26.924;2023-04-01T18:25:34;97492.00;;;11.43;100.00
37856;BME280;23694;43.274;26.924;2023-04-01T18:30:34;97497.63;;;11.49;100.00
37856;BME280;23694;43.274;26.924;2023-04-01T18:33:02;97502.84;;;11.58;100.00
37856;BME280;23694;43.274;26.924;2023-04-01T18:38:23;97523.97;;;11.57;100.00
37856;BME280;23694;43.274;26.924;2023-04-01T18:41:10;97521.00;;;11.69;100.00
37856;BME280;23694;43.274;26.924;2023-04-01T18:44:03;97533.44;;;11.67;100.00
37856;BME280;23694;43.274;26.924;2023-04-01T18:46:48;97546.97;;;11.72;100.00
37856;BME280;23694;43.274;26.924;2023-04-01T18:51:45;97541.72;;;11.72;100.00
37856;BME280;23694;43.274;26.924;2023-04-01T18:54:21;97554.66;;;11.84;100.00
37856;BME280;23694;43.274;26.924;2023-04-01T18:56:49;97540.19;;;11.70;100.00
37856;BME280;23694;43.274;26.924;2023-04-01T18:59:27;97543.28;;;11.93;100.00
37856;BME280;23694;43.274;26.924;2023-04-01T19:02:16;97528.91;;;11.97;99.00
37856;BME280;23694;43.274;26.924;2023-04-01T19:15:39;97527.94;;;12.16;97.52
37856;BME280;23694;43.274;26.924;2023-04-01T19:35:57;97548.75;;;12.45;93.43
37856;BME280;23694;43.274;26.924;2023-04-01T19:38:41;97545.69;;;12.49;92.82
37856;BME280;23694;43.274;26.924;2023-04-01T19:49:33;97559.25;;;12.45;91.53
37856;BME280;23694;43.274;26.924;2023-04-01T19:52:20;97571.19;;;12.39;91.58
37856;BME280;23694;43.274;26.924;2023-04-01T20:00:28;97582.69;;;12.28;92.56
37856;BME280;23694;43.274;26.924;2023-04-01T20:06:04;97587.16;;;12.00;95.07
37856;BME280;23694;43.274;26.924;2023-04-01T20:08:54;97589.94;;;11.99;95.80
37856;BME280;23694;43.274;26.924;2023-04-01T20:14:17;97583.00;;;11.61;100.00
37856;BME280;23694;43.274;26.924;2023-04-01T20:25:22;97577.09;;;11.59;100.00
37856;BME280;23694;43.274;26.924;2023-04-01T20:27:56;97582.63;;;11.56;100.00
37856;BME280;23694;43.274;26.924;2023-04-01T20:33:21;97573.72;;;11.76;99.38
37856;BME280;23694;43.274;26.924;2023-04-01T20:44:10;97586.16;;;11.74;99.65
37856;BME280;23694;43.274;26.924;2023-04-01T20:54:45;97594.44;;;11.69;97.77
37856;BME280;23694;43.274;26.924;2023-04-01T20:57:22;97595.84;;;11.64;97.39
37856;BME280;23694;43.274;26.924;2023-04-01T21:17:37;97603.88;;;11.53;97.01
37856;BME280;23694;43.274;26.924;2023-04-01T21:49:44;97655.28;;;10.78;95.97
37856;BME280;23694;43.274;26.924;2023-04-01T21:55:24;97646.88;;;10.55;98.27
37856;BME280;23694;43.274;26.924;2023-04-01T22:00:53;97637.78;;;10.59;95.54
37856;BME280;23694;43.274;26.924;2023-04-01T22:06:42;97637.28;;;10.25;94.88
37856;BME280;23694;43.274;26.924;2023-04-01T22:09:22;97629.84;;;10.21;94.96
37856;BME280;23694;43.274;26.924;2023-04-01T22:12:00;97630.31;;;10.05;95.20
37856;BME280;23694;43.274;26.924;2023-04-01T22:14:47;97628.56;;;10.15;95.40
37856;BME280;23694;43.274;26.924;2023-04-01T22:17:52;97629.19;;;9.98;93.53
37856;BME280;23694;43.274;26.924;2023-04-01T22:20:40;97637.19;;;9.96;93.91
37856;BME280;23694;43.274;26.924;2023-04-01T22:23:30;97647.66;;;9.96;92.49
37856;BME280;23694;43.274;26.924;2023-04-01T22:26:19;97645.53;;;9.80;92.59
37856;BME280;23694;43.274;26.924;2023-04-01T22:29:11;97641.88;;;9.72;92.84
37856;BME280;23694;43.274;26.924;2023-04-01T22:31:49;97644.97;;;9.77;91.53
37856;BME280;23694;43.274;26.924;2023-04-01T22:40:24;97622.47;;;9.74;89.08
37856;BME280;23694;43.274;26.924;2023-04-01T22:42:59;97626.50;;;9.48;89.91
37856;BME280;23694;43.274;26.924;2023-04-01T22:45:40;97624.75;;;9.58;89.68
37856;BME280;23694;43.274;26.924;2023-04-01T22:56:34;97622.63;;;9.42;89.24
37856;BME280;23694;43.274;26.924;2023-04-01T22:59:14;97607.22;;;9.18;89.83
37856;BME280;23694;43.274;26.924;2023-04-01T23:01:46;97593.63;;;9.04;90.47
37856;BME280;23694;43.274;26.924;2023-04-01T23:04:17;97592.41;;;9.08;89.27
37856;BME280;23694;43.274;26.924;2023-04-01T23:06:53;97595.16;;;9.06;88.85
37856;BME280;23694;43.274;26.924;2023-04-01T23:09:27;97583.06;;;9.05;88.98
37856;BME280;23694;43.274;26.924;2023-04-01T23:27:56;97588.72;;;8.69;89.80
37856;BME280;23694;43.274;26.924;2023-04-01T23:33:15;97574.25;;;8.65;89.96
37856;BME280;23694;43.274;26.924;2023-04-01T23:35:52;97569.44;;;8.60;89.88
37856;BME280;23694;43.274;26.924;2023-04-01T23:38:20;97560.13;;;8.67;89.74
37856;BME280;23694;43.274;26.924;2023-04-01T23:40:52;97565.75;;;8.63;89.48
37856;BME280;23694;43.274;26.924;2023-04-01T23:43:27;97555.69;;;8.58;88.75
37856;BME280;23694;43.274;26.924;2023-04-01T23:45:58;97575.22;;;8.64;88.90
37856;BME280;23694;43.274;26.924;2023-04-01T23:48:30;97564.66;;;8.65;88.72
37856;BME280;23694;43.274;26.924;2023-04-01T23:50:58;97577.59;;;8.67;88.83
37856;BME280;23694;43.274;26.924;2023-04-01T23:53:28;97581.97;;;8.66;88.61
37856;BME280;23694;43.274;26.924;2023-04-01T23:55:55;97577.88;;;8.52;88.92
37856;BME280;23694;43.274;26.924;2023-04-01T23:58:24;97579.63;;;8.63;88.93
